• Join FlightAware (Why Join?)
  • Login
  • US Flag 
05:26AM EDT


 

Airport Tracker/Info


-or-


 

Live Flight TrackerFlight Track Log ✈ SWA3313 ✈ 28-Apr-2013 ✈ KBWI - KCLT

Flight Track Log - Related Links

Times and Time Zones

All times are in EDT time to prevent confusion due to time zone crossing. See the SWA3313 flight status page for this flight to view local times or setup timezone preferences in your user account.

Time Position Orientation Groundspeed Altitude Reporting Facility
EDT Latitude Longitude Course Direction KTS MPH feet Rate Location/Type
08:27PM 39.1333 -76.6500 270° West 172 198 2,200  Level Potomac TRACON
08:28PM 39.1333 -76.7167 270° West 233 268 4,500 3,180 Climbing Potomac TRACON
08:29PM 39.1667 -76.8167 293° West 272 313 8,300 3,300 Climbing Potomac TRACON
08:30PM 39.2000 -76.9000 297° West 284 327 11,200 2,820 Climbing Potomac TRACON
08:31PM 39.2167 -77.0167 280° West 349 402 14,000 3,120 Climbing Potomac TRACON
08:32PM 39.2000 -77.1500 261° West 362 417 17,500 3,000 Climbing Potomac TRACON
08:33PM 39.1167 -77.2333 218° Southwest 377 434 20,400 2,580 Climbing Potomac TRACON
08:34PM 39.0167 -77.2833 201° Southwest 392 451 23,000 780 Climbing Potomac TRACON
08:36PM 38.8064 -77.3764 199° South 410 472 23,000 420 Level Washington Center
08:37PM 38.7036 -77.4244 200° South 405 466 24,500 1,800 Climbing Washington Center
08:38PM 38.6006 -77.4725 200° South 405 466 26,700 1,260 Climbing Washington Center
08:39PM 38.4914 -77.5228 200° South 400 460 27,100 600 Climbing Washington Center
08:40PM 38.3881 -77.5836 205° Southwest 411 473 28,000 420 Climbing Washington Center
08:41PM 38.3175 -77.6928 231° Southwest 403 464 28,000  Level Washington Center
08:42PM 38.2425 -77.8044 229° Southwest 398 458 28,000  Level Washington Center
08:43PM 38.1758 -77.9108 231° Southwest 403 464 28,000 480 Level Washington Center
08:44PM 38.1028 -78.0194 229° Southwest 403 464 29,000 1,860 Climbing Washington Center
08:45PM 38.0339 -78.1253 230° Southwest 403 464 31,700 1,980 Climbing Washington Center
08:46PM 37.9714 -78.2233 231° Southwest 386 444 33,000 600 Climbing Washington Center
08:47PM 37.9025 -78.3208 228° Southwest 375 432 33,000  Level Washington Center
08:48PM 37.8333 -78.4183 228° Southwest 375 432 33,000  Level Washington Center
08:49PM 37.7578 -78.5283 229° Southwest 375 432 33,000  Level Washington Center
08:50PM 37.6908 -78.6228 228° Southwest 375 432 33,000  Level Washington Center
08:51PM 37.6214 -78.7197 228° Southwest 375 432 33,000  Level Washington Center
08:52PM 37.5542 -78.8167 229° Southwest 375 432 33,000  Level Washington Center
08:53PM 37.4850 -78.9131 228° Southwest 375 432 33,000  Level Washington Center
08:54PM 37.4219 -78.9992 227° Southwest 375 432 33,000  Level Washington Center
08:55PM 37.3403 -79.0844 220° Southwest 375 432 33,000  Level Washington Center
08:56PM 37.2544 -79.1614 216° Southwest 380 437 33,000  Level Washington Center
08:57PM 37.1686 -79.2408 216° Southwest 386 444 33,000  Level Washington Center
08:58PM 37.0828 -79.3200 216° Southwest 386 444 33,000  Level Washington Center
08:59PM 36.9969 -79.3964 215° Southwest 386 444 33,000  Level Washington Center
09:00PM 36.9025 -79.4803 215° Southwest 393 452 33,000  Level Washington Center
09:01PM 36.8164 -79.5589 216° Southwest 388 447 33,000 -60 Level Washington Center
09:02PM 36.7325 -79.6350 216° Southwest 388 447 32,900 -1,620 Descending Washington Center
09:04PM 36.5864 -79.7625 215° Southwest 389 448 28,700 -2,340 Descending Atlanta Center
09:05PM 36.5056 -79.8339 215° Southwest 379 436 26,600 -2,100 Descending Atlanta Center
09:06PM 36.4267 -79.9025 215° Southwest 361 415 24,600 -1,980 Descending Atlanta Center
09:07PM 36.3497 -79.9736 217° Southwest 354 407 22,700 -1,320 Descending Atlanta Center
09:08PM 36.2786 -80.0339 214° Southwest 354 407 22,000 -360 Descending Atlanta Center
09:09PM 36.2017 -80.0994 215° Southwest 349 402 22,000 -840 Level Atlanta Center
09:10PM 36.1267 -80.1672 216° Southwest 349 402 20,400 -1,740 Descending Atlanta Center
09:11PM 36.0511 -80.2275 213° Southwest 344 396 18,600 -1,980 Descending Atlanta Center
09:12PM 36.0006 -80.2786 219° Southwest 314 361 17,100 -2,100 Descending Atlanta Center
09:12PM 35.9742 -80.2953 207° Southwest 331 381 16,500 -1,980 Descending Atlanta Center
09:12PM 35.9397 -80.3328 221° Southwest 314 361 15,500 -2,040 Descending Atlanta Center
09:13PM 35.9008 -80.3575 207° Southwest 325 374 14,500 -1,980 Descending Atlanta Center
09:13PM 35.8642 -80.3900 216° Southwest 315 362 13,500 -1,500 Descending Atlanta Center
09:14PM 35.8275 -80.4172 211° Southwest 325 374 13,000 -540 Descending Atlanta Center
09:14PM 35.7869 -80.4575 219° Southwest 293 337 12,900 -420 Descending Atlanta Center
09:15PM 35.7706 -80.4683 208° Southwest 312 359 12,600 -1,140 Descending Atlanta Center
09:15PM 35.7258 -80.5114 218° Southwest 270 311 11,800 -1,020 Descending Atlanta Center
09:16PM 35.7075 -80.5222 206° Southwest 293 337 11,600 -1,020 Descending Atlanta Center
09:16PM 35.6628 -80.5625 216° Southwest 267 307 10,800 -1,020 Descending Atlanta Center
09:17PM 35.6464 -80.5733 208° Southwest 284 327 10,600 -900 Descending Atlanta Center
09:17PM 35.6097 -80.6083 218° Southwest 256 295 10,000 -720 Descending Atlanta Center
09:18PM 35.5894 -80.6219 209° Southwest 261 300 9,900  Descending Atlanta Center
09:19PM 35.5486 -80.6567 215° Southwest 228 262 10,000  Climbing Atlanta Center
09:19PM 35.5383 -80.6647 213° Southwest 238 274 9,900  Descending Atlanta Center
09:20PM 35.4914 -80.7050 215° Southwest 209 241 10,000  Climbing Atlanta Center
09:21PM 35.4364 -80.7506 214° Southwest 218 251 10,000  Level Atlanta Center
09:22PM 35.3853 -80.7933 214° Southwest 216 249 10,000  Level Atlanta Center
09:23PM 35.3425 -80.8281 214° Southwest 209 241 10,000 -360 Level Atlanta Center
09:24PM 35.2886 -80.8431 193° South 226 260 9,400 -780 Descending Atlanta Center
09:25PM 35.2175 -80.8356 175° South 233 268 8,500 -1,140 Descending Atlanta Center
09:26PM 35.1486 -80.8306 177° South 231 266 7,000 -1,380 Descending Atlanta Center
09:27PM 35.0919 -80.8250 175° South 223 257 5,700 -1,440 Descending Atlanta Center
09:28PM 35.0272 -80.8200 176° South 226 260 4,300 -840 Descending Atlanta Center
09:29PM 34.9603 -80.8150 176° South 225 259 4,000 -180 Descending Atlanta Center
09:30PM 34.9019 -80.8197 184° South 216 249 4,000  Level Atlanta Center
09:31PM 34.8892 -80.8861 257° West 199 229 4,000  Level Atlanta Center
09:32PM 34.9336 -80.9122 334° Northwest 225 259 4,000  Level Atlanta Center
09:33PM 35.0067 -80.9197 355° North 228 262 4,000 -360 Level Atlanta Center
09:34PM 35.0633 -80.9253 355° North 221 254 3,300 -900 Descending Atlanta Center
09:35PM 35.1197 -80.9308 355° North 203 234 2,300 -900 Descending Atlanta Center
09:36PM 35.1636 -80.9342 356° North 152 175 1,500 -840 Descending Atlanta Center
09:38PM 35.2000 -80.9333 North  Level FlightAware Approximate
09:45PM 35.2137 -80.9491 North  Level Estimated